This is the latest recevied weather packets stored in our database for station/object K7D3. If no packets are shown the sender has not sent any weather packets the latest 10 day(s).
| Time | Temp. | Humidity | Pressure | Rain* | Wind** | Luminosity | Snow |
|---|---|---|---|---|---|---|---|
| 1777942113 | 16.11° C | 66% | - | 0.25 mm | 4.02 m/s, 352° | - | - |
| 1777941634 | 16.67° C | 64% | - | 0.25 mm | 6.71 m/s, 336° | - | - |
| 1777941155 | 16.67° C | 63% | - | 0.25 mm | 3.13 m/s, 328° | - | - |
| 1777940673 | 16.67° C | 61% | - | 0 mm | 6.26 m/s, 354° | - | - |
| 1777940194 | 17.78° C | 54% | - | 0 mm | 3.58 m/s, 333° | - | - |
| 1777939716 | 20.56° C | 35% | - | 0 mm | 5.81 m/s, 302° | - | - |
| 1777939233 | 22.22° C | 29% | - | 0 mm | 3.58 m/s, 307° | - | - |
| 1777938755 | 21.67° C | 28% | - | 0 mm | 4.02 m/s, 309° | - | - |
| 1777938276 | 22.22° C | 28% | - | 0 mm | 4.47 m/s, 316° | - | - |
| 1777937794 | 22.22° C | 28% | - | 0 mm | 4.02 m/s, 280° | - | - |
| 1777937315 | 22.22° C | 28% | - | 0 mm | 3.58 m/s, 240° | - | - |
| 1777936837 | 22.22° C | 27% | - | 0 mm | 5.81 m/s, 235° | - | - |
| 1777936354 | 22.22° C | 27% | - | 0 mm | 7.15 m/s, 285° | - | - |
| 1777935876 | 22.22° C | 27% | - | 0 mm | 6.26 m/s, 277° | - | - |
| 1777935397 | 22.22° C | 27% | - | 0 mm | 8.05 m/s, 231° | - | - |
| 1777934915 | 22.22° C | 28% | - | 0 mm | 6.71 m/s, 259° | - | - |
| 1777934436 | 22.78° C | 28% | - | 0 mm | 7.15 m/s, 250° | - | - |
| 1777933958 | 22.22° C | 28% | - | 0 mm | 6.26 m/s, 248° | - | - |
| 1777933476 | 22.78° C | 27% | - | 0 mm | 7.15 m/s, 252° | - | - |
| 1777932997 | 22.22° C | 28% | - | 0 mm | 8.05 m/s, 273° | - | - |
| 1777932518 | 22.78° C | 28% | - | 0 mm | 5.36 m/s, 239° | - | - |
| 1777932036 | 22.22° C | 28% | - | 0 mm | 7.6 m/s, 259° | - | - |
| 1777931558 | 22.78° C | 27% | - | 0 mm | 6.71 m/s, 248° | - | - |
| 1777931079 | 22.78° C | 28% | - | 0 mm | 7.6 m/s, 252° | - | - |
| 1777930597 | 22.78° C | 28% | - | 0 mm | 6.26 m/s, 257° | - | - |
* Rain latest hour (hover to see other rain measurements)
** Current wind speed in m/s (hover to see current wind gust speed)